Time;durP1;ratioP1;P1;durP2;ratioP2;P2;SDS_P1;SDS_P2;PMS_P1;PMS_P2;Temp;Humidity;BMP_temperature;BMP_pressure;BME280_temperature;BME280_humidity;BME280_pressure;Samples;Min_cycle;Max_cycle;Signal;HPM_P1;HPM_P2
2023/04/22 00:02:06;;;;;;;27.10;14.10;;;;;;;-128.00;-1.00;-1.00;97959;295;1004125;-33
2023/04/22 00:04:32;;;;;;;19.90;10.20;;;;;;;-128.00;-1.00;-1.00;97893;295;1003179;-32
2023/04/22 00:06:58;;;;;;;22.30;12.10;;;;;;;-128.00;-1.00;-1.00;97825;295;1003842;-33
2023/04/22 00:09:24;;;;;;;18.60;7.90;;;;;;;-128.00;-1.00;-1.00;98150;295;1003313;-29
2023/04/22 00:11:51;;;;;;;23.30;12.00;;;;;;;-128.00;-1.00;-1.00;97908;295;1002758;-34
2023/04/22 00:14:16;;;;;;;18.50;12.00;;;;;;;-128.00;-1.00;-1.00;98038;295;1002939;-27
2023/04/22 00:16:42;;;;;;;28.00;15.60;;;;;;;-128.00;-1.00;-1.00;97937;295;1003830;-32
2023/04/22 00:19:08;;;;;;;25.90;12.60;;;;;;;-128.00;-1.00;-1.00;97913;295;1004077;-27
2023/04/22 00:21:33;;;;;;;35.00;16.20;;;;;;;-128.00;-1.00;-1.00;97976;295;1003875;-30
2023/04/22 00:23:59;;;;;;;41.70;15.60;;;;;;;-128.00;-1.00;-1.00;97823;295;1004353;-29
2023/04/22 00:26:24;;;;;;;34.40;16.30;;;;;;;-128.00;-1.00;-1.00;97812;295;1004272;-32
2023/04/22 00:28:50;;;;;;;20.80;12.70;;;;;;;-128.00;-1.00;-1.00;97890;295;1003596;-28
2023/04/22 00:31:16;;;;;;;35.30;17.00;;;;;;;-128.00;-1.00;-1.00;97912;295;1003173;-28
2023/04/22 00:33:41;;;;;;;30.20;17.70;;;;;;;-128.00;-1.00;-1.00;97866;295;1003499;-35
2023/04/22 00:36:07;;;;;;;26.80;15.30;;;;;;;-128.00;-1.00;-1.00;97948;295;1003335;-32
2023/04/22 00:38:32;;;;;;;29.70;13.70;;;;;;;-128.00;-1.00;-1.00;98027;295;1003972;-32
2023/04/22 00:40:58;;;;;;;26.40;13.70;;;;;;;-128.00;-1.00;-1.00;97990;295;1002717;-34
2023/04/22 00:43:24;;;;;;;34.30;15.10;;;;;;;-128.00;-1.00;-1.00;98076;295;1004419;-28
2023/04/22 00:45:49;;;;;;;32.60;14.30;;;;;;;-128.00;-1.00;-1.00;98011;295;1003858;-31
2023/04/22 00:48:15;;;;;;;25.10;14.20;;;;;;;-128.00;-1.00;-1.00;97887;295;1003086;-32
2023/04/22 00:50:41;;;;;;;16.50;10.70;;;;;;;-128.00;-1.00;-1.00;97928;295;1002757;-34
2023/04/22 00:53:06;;;;;;;17.20;10.50;;;;;;;-128.00;-1.00;-1.00;97852;295;1002996;-28
2023/04/22 00:55:32;;;;;;;10.80;7.30;;;;;;;-128.00;-1.00;-1.00;97891;295;1004286;-32
2023/04/22 00:57:57;;;;;;;30.30;14.10;;;;;;;-128.00;-1.00;-1.00;97761;295;1003681;-31
2023/04/22 01:00:26;;;;;;;40.10;15.90;;;;;;;-128.00;-1.00;-1.00;97861;295;1003711;-28
2023/04/22 01:02:53;;;;;;;17.90;10.80;;;;;;;-128.00;-1.00;-1.00;97868;296;1002755;-28
2023/04/22 01:05:19;;;;;;;20.20;9.60;;;;;;;-128.00;-1.00;-1.00;97996;295;1003089;-32
2023/04/22 01:07:45;;;;;;;17.30;8.20;;;;;;;-128.00;-1.00;-1.00;97123;296;1004723;-33
2023/04/22 01:10:11;;;;;;;17.90;8.90;;;;;;;-128.00;-1.00;-1.00;71625;295;7504062;-29
2023/04/22 01:12:38;;;;;;;17.90;8.90;;;;;;;-128.00;-1.00;-1.00;20451;288;7504746;-33
2023/04/22 01:15:05;;;;;;;21.60;9.90;;;;;;;-128.00;-1.00;-1.00;18880;288;7504539;-32
2023/04/22 01:17:32;;;;;;;29.00;10.00;;;;;;;-128.00;-1.00;-1.00;24771;296;7504265;-34
2023/04/22 01:20:02;;;;;;;26.00;13.50;;;;;;;-128.00;-1.00;-1.00;60828;296;7504693;-34
2023/04/22 01:22:28;;;;;;;25.60;12.80;;;;;;;-128.00;-1.00;-1.00;18480;297;7504346;-30
2023/04/22 01:24:54;;;;;;;24.40;11.70;;;;;;;-128.00;-1.00;-1.00;18481;288;7504442;-29
2023/04/22 01:27:21;;;;;;;27.90;11.40;;;;;;;-128.00;-1.00;-1.00;19577;296;7504232;-29
2023/04/22 01:29:47;;;;;;;16.00;9.40;;;;;;;-128.00;-1.00;-1.00;18854;295;7504810;-30
2023/04/22 01:32:13;;;;;;;16.30;9.00;;;;;;;-128.00;-1.00;-1.00;18865;313;7504621;-33
2023/04/22 01:34:39;;;;;;;21.20;11.70;;;;;;;-128.00;-1.00;-1.00;18849;295;7504184;-29
2023/04/22 01:37:06;;;;;;;25.10;14.40;;;;;;;-128.00;-1.00;-1.00;18884;288;7505417;-33
2023/04/22 01:39:32;;;;;;;23.20;13.20;;;;;;;-128.00;-1.00;-1.00;18892;336;7504690;-32
2023/04/22 01:41:58;;;;;;;23.20;13.20;;;;;;;-128.00;-1.00;-1.00;18930;308;7505692;-31
2023/04/22 01:44:25;;;;;;;25.60;13.20;;;;;;;-128.00;-1.00;-1.00;18909;288;7505324;-30
2023/04/22 01:46:50;;;;;;;30.10;13.20;;;;;;;-128.00;-1.00;-1.00;18468;308;7504840;-28
2023/04/22 01:49:16;;;;;;;21.50;12.70;;;;;;;-128.00;-1.00;-1.00;18468;304;7504355;-29
2023/04/22 01:51:42;;;;;;;24.10;14.50;;;;;;;-128.00;-1.00;-1.00;18476;288;7504205;-29
2023/04/22 01:54:09;;;;;;;17.70;10.80;;;;;;;-128.00;-1.00;-1.00;18456;295;7505758;-33
2023/04/22 01:56:35;;;;;;;21.10;11.70;;;;;;;-128.00;-1.00;-1.00;18464;298;7504143;-31
2023/04/22 01:59:01;;;;;;;18.40;9.00;;;;;;;-128.00;-1.00;-1.00;18544;297;7504812;-35
2023/04/22 02:01:27;;;;;;;20.10;11.50;;;;;;;-128.00;-1.00;-1.00;18903;288;7504308;-30
2023/04/22 02:03:53;;;;;;;21.40;13.10;;;;;;;-128.00;-1.00;-1.00;18870;295;7504121;-33
2023/04/22 02:06:19;;;;;;;21.50;13.40;;;;;;;-128.00;-1.00;-1.00;18906;296;7504448;-33
2023/04/22 02:08:45;;;;;;;24.20;12.70;;;;;;;-128.00;-1.00;-1.00;18879;284;7504915;-30
2023/04/22 02:11:11;;;;;;;39.40;19.70;;;;;;;-128.00;-1.00;-1.00;18896;295;7504306;-34
2023/04/22 02:13:39;;;;;;;32.60;18.50;;;;;;;-128.00;-1.00;-1.00;18894;288;7505220;-33
2023/04/22 02:16:05;;;;;;;31.70;18.80;;;;;;;-128.00;-1.00;-1.00;18488;288;7505779;-30
2023/04/22 02:18:31;;;;;;;36.80;19.70;;;;;;;-128.00;-1.00;-1.00;18472;288;7506182;-34
2023/04/22 02:20:56;;;;;;;35.10;20.80;;;;;;;-128.00;-1.00;-1.00;18440;297;7506046;-31
2023/04/22 02:23:22;;;;;;;33.30;19.00;;;;;;;-128.00;-1.00;-1.00;18456;297;7504668;-31
2023/04/22 02:25:49;;;;;;;32.30;18.30;;;;;;;-128.00;-1.00;-1.00;18472;313;7504316;-31
2023/04/22 02:28:15;;;;;;;32.70;16.50;;;;;;;-128.00;-1.00;-1.00;18495;340;7505058;-31
2023/04/22 02:30:41;;;;;;;41.60;19.40;;;;;;;-128.00;-1.00;-1.00;18453;295;7504382;-34
2023/04/22 02:33:06;;;;;;;26.70;14.00;;;;;;;-128.00;-1.00;-1.00;18500;288;7507000;-34
2023/04/22 02:35:32;;;;;;;36.10;17.10;;;;;;;-128.00;-1.00;-1.00;18868;288;7504299;-34
2023/04/22 02:37:59;;;;;;;34.40;17.20;;;;;;;-128.00;-1.00;-1.00;18857;307;7505178;-33
2023/04/22 02:40:25;;;;;;;29.90;17.30;;;;;;;-128.00;-1.00;-1.00;18905;323;7505005;-33
2023/04/22 02:42:53;;;;;;;29.00;13.90;;;;;;;-128.00;-1.00;-1.00;18886;295;7504597;-33
2023/04/22 02:45:19;;;;;;;28.90;14.70;;;;;;;-128.00;-1.00;-1.00;18871;295;7504228;-34
2023/04/22 02:47:45;;;;;;;29.00;16.60;;;;;;;-128.00;-1.00;-1.00;18860;297;7504923;-34
2023/04/22 02:50:12;;;;;;;28.20;15.50;;;;;;;-128.00;-1.00;-1.00;18883;303;7506015;-30
2023/04/22 02:52:38;;;;;;;38.90;17.10;;;;;;;-128.00;-1.00;-1.00;18867;295;7505032;-33
2023/04/22 02:55:05;;;;;;;39.20;17.10;;;;;;;-128.00;-1.00;-1.00;18884;295;7504450;-33
2023/04/22 02:57:31;;;;;;;26.40;15.20;;;;;;;-128.00;-1.00;-1.00;18482;288;7507336;-30
2023/04/22 02:59:57;;;;;;;34.50;19.90;;;;;;;-128.00;-1.00;-1.00;18859;288;7504901;-34
2023/04/22 03:02:23;;;;;;;32.90;19.30;;;;;;;-128.00;-1.00;-1.00;18876;308;7504240;-30
2023/04/22 03:04:51;;;;;;;29.30;16.40;;;;;;;-128.00;-1.00;-1.00;18887;295;7504749;-30
2023/04/22 03:07:16;;;;;;;32.70;15.00;;;;;;;-128.00;-1.00;-1.00;18468;288;7504523;-29
2023/04/22 03:09:42;;;;;;;35.50;20.90;;;;;;;-128.00;-1.00;-1.00;18879;295;7504979;-35
2023/04/22 03:12:09;;;;;;;29.50;15.10;;;;;;;-128.00;-1.00;-1.00;18895;296;7505525;-31
2023/04/22 03:14:35;;;;;;;23.60;12.70;;;;;;;-128.00;-1.00;-1.00;18457;291;7505912;-34
2023/04/22 03:17:01;;;;;;;28.00;14.20;;;;;;;-128.00;-1.00;-1.00;18502;296;7505930;-36
2023/04/22 03:19:26;;;;;;;30.50;13.10;;;;;;;-128.00;-1.00;-1.00;18439;297;7504761;-30
2023/04/22 03:21:52;;;;;;;36.50;20.80;;;;;;;-128.00;-1.00;-1.00;18896;288;7504199;-30
2023/04/22 03:24:18;;;;;;;24.40;14.60;;;;;;;-128.00;-1.00;-1.00;18846;298;7504415;-29
2023/04/22 03:26:45;;;;;;;25.70;14.30;;;;;;;-128.00;-1.00;-1.00;18862;308;7504132;-33
2023/04/22 03:29:11;;;;;;;37.80;19.50;;;;;;;-128.00;-1.00;-1.00;18910;296;7504160;-33
2023/04/22 03:31:37;;;;;;;28.30;15.80;;;;;;;-128.00;-1.00;-1.00;18884;296;7504492;-31
2023/04/22 03:34:03;;;;;;;32.60;17.50;;;;;;;-128.00;-1.00;-1.00;18864;320;7504551;-30
2023/04/22 03:36:30;;;;;;;38.50;19.40;;;;;;;-128.00;-1.00;-1.00;18854;297;7505324;-31
2023/04/22 03:38:56;;;;;;;33.20;17.60;;;;;;;-128.00;-1.00;-1.00;18894;320;7505039;-34
2023/04/22 03:41:25;;;;;;;25.40;14.90;;;;;;;-128.00;-1.00;-1.00;18878;296;7504479;-34
2023/04/22 03:43:51;;;;;;;28.30;13.80;;;;;;;-128.00;-1.00;-1.00;18495;296;7504538;-30
2023/04/22 03:46:17;;;;;;;19.80;11.30;;;;;;;-128.00;-1.00;-1.00;18459;296;7506299;-30
2023/04/22 03:48:43;;;;;;;18.40;10.70;;;;;;;-128.00;-1.00;-1.00;18889;288;7506173;-33
2023/04/22 03:51:09;;;;;;;24.40;12.40;;;;;;;-128.00;-1.00;-1.00;18867;296;7504474;-30
2023/04/22 03:53:35;;;;;;;28.40;14.50;;;;;;;-128.00;-1.00;-1.00;18872;288;7504515;-33
2023/04/22 03:56:02;;;;;;;27.90;13.40;;;;;;;-128.00;-1.00;-1.00;18854;288;7505629;-33
2023/04/22 03:58:28;;;;;;;25.40;13.20;;;;;;;-128.00;-1.00;-1.00;18883;296;7505024;-31
2023/04/22 04:00:54;;;;;;;27.60;13.80;;;;;;;-128.00;-1.00;-1.00;18863;296;7505098;-30
2023/04/22 04:03:20;;;;;;;20.60;13.00;;;;;;;-128.00;-1.00;-1.00;18511;296;7504763;-33
2023/04/22 04:05:46;;;;;;;19.40;10.30;;;;;;;-128.00;-1.00;-1.00;18485;308;7504637;-31
2023/04/22 04:08:12;;;;;;;20.40;10.50;;;;;;;-128.00;-1.00;-1.00;18470;296;7506450;-35
2023/04/22 04:10:37;;;;;;;20.00;10.10;;;;;;;-128.00;-1.00;-1.00;18473;309;7505151;-35
2023/04/22 04:13:03;;;;;;;17.00;10.60;;;;;;;-128.00;-1.00;-1.00;18464;337;7504448;-29
2023/04/22 04:15:29;;;;;;;24.70;12.40;;;;;;;-128.00;-1.00;-1.00;18443;347;7505029;-35
2023/04/22 04:17:55;;;;;;;29.70;17.00;;;;;;;-128.00;-1.00;-1.00;18484;296;7504372;-29
2023/04/22 04:20:21;;;;;;;30.80;16.10;;;;;;;-128.00;-1.00;-1.00;18467;346;7505814;-30
2023/04/22 04:22:47;;;;;;;29.30;15.20;;;;;;;-128.00;-1.00;-1.00;18485;296;7505997;-30
2023/04/22 04:25:13;;;;;;;39.10;19.80;;;;;;;-128.00;-1.00;-1.00;18458;297;7504773;-29
2023/04/22 04:27:40;;;;;;;29.60;17.50;;;;;;;-128.00;-1.00;-1.00;18479;296;7506054;-30
2023/04/22 04:30:06;;;;;;;35.50;19.50;;;;;;;-128.00;-1.00;-1.00;18471;288;7504862;-33
2023/04/22 04:32:35;;;;;;;27.90;18.00;;;;;;;-128.00;-1.00;-1.00;18488;296;7504084;-30
2023/04/22 04:35:02;;;;;;;38.70;17.60;;;;;;;-128.00;-1.00;-1.00;18472;295;7506660;-29
2023/04/22 04:37:27;;;;;;;26.90;13.50;;;;;;;-128.00;-1.00;-1.00;18495;288;7505250;-33
2023/04/22 05:18:11;;;;;;;23.20;13.20;;;;;;;-101.02;18.46;19858.19;98236;295;1544343;-30
2023/04/22 05:20:37;;;;;;;28.20;14.80;;;;;;;-128.00;-1.00;-1.00;97607;295;1004192;-34
2023/04/22 05:23:03;;;;;;;33.50;14.60;;;;;;;-128.00;-1.00;-1.00;97860;295;1004521;-30
2023/04/22 05:25:28;;;;;;;22.20;12.40;;;;;;;-128.00;-1.00;-1.00;97848;295;1003102;-36
2023/04/22 05:27:54;;;;;;;23.60;12.40;;;;;;;-128.00;-1.00;-1.00;89395;289;3003368;-31
2023/04/22 05:30:19;;;;;;;20.50;13.70;;;;;;;-128.00;-1.00;-1.00;18589;296;7506698;-35
2023/04/22 05:32:45;;;;;;;26.30;14.70;;;;;;;-128.00;-1.00;-1.00;18493;295;7504418;-34
2023/04/22 05:35:11;;;;;;;21.10;12.80;;;;;;;-128.00;-1.00;-1.00;18879;288;7504943;-32
2023/04/22 05:37:38;;;;;;;24.60;14.70;;;;;;;-128.00;-1.00;-1.00;18887;297;7505191;-36
2023/04/22 05:40:05;;;;;;;28.00;14.30;;;;;;;-128.00;-1.00;-1.00;18885;296;7505071;-34
2023/04/22 05:42:31;;;;;;;29.30;12.80;;;;;;;-128.00;-1.00;-1.00;18486;347;7505402;-31
2023/04/22 05:44:57;;;;;;;20.00;12.00;;;;;;;-128.00;-1.00;-1.00;18900;288;7504768;-31
2023/04/22 05:47:23;;;;;;;20.60;12.20;;;;;;;-128.00;-1.00;-1.00;18876;295;7505023;-35
2023/04/22 05:49:49;;;;;;;17.20;11.10;;;;;;;-128.00;-1.00;-1.00;18864;288;7505009;-34
2023/04/22 05:52:17;;;;;;;23.90;10.60;;;;;;;-128.00;-1.00;-1.00;18880;288;7505537;-32
2023/04/22 05:54:43;;;;;;;17.40;10.90;;;;;;;-128.00;-1.00;-1.00;18463;295;7504616;-31
2023/04/22 05:57:08;;;;;;;14.90;8.10;;;;;;;-128.00;-1.00;-1.00;18468;348;7507558;-35
2023/04/22 05:59:34;;;;;;;18.40;10.00;;;;;;;-128.00;-1.00;-1.00;18893;284;7505280;-35
2023/04/22 06:02:01;;;;;;;14.80;10.20;;;;;;;-128.00;-1.00;-1.00;18893;295;7504984;-32
2023/04/22 06:04:27;;;;;;;13.60;8.40;;;;;;;-128.00;-1.00;-1.00;18895;295;7506067;-31
2023/04/22 06:06:53;;;;;;;18.20;9.50;;;;;;;-128.00;-1.00;-1.00;18899;296;7505428;-35
2023/04/22 06:09:20;;;;;;;16.60;9.40;;;;;;;-128.00;-1.00;-1.00;18870;288;7504792;-35
2023/04/22 06:11:46;;;;;;;16.10;8.10;;;;;;;-128.00;-1.00;-1.00;18481;288;7504317;-35
2023/04/22 06:14:12;;;;;;;16.00;8.70;;;;;;;-128.00;-1.00;-1.00;18481;288;7504909;-38
2023/04/22 06:16:38;;;;;;;12.50;8.00;;;;;;;-128.00;-1.00;-1.00;18460;296;7506277;-36
2023/04/22 06:19:05;;;;;;;9.90;8.40;;;;;;;-128.00;-1.00;-1.00;18501;296;7504563;-32
2023/04/22 06:21:32;;;;;;;13.80;7.90;;;;;;;-128.00;-1.00;-1.00;18488;296;7504428;-31
2023/04/22 06:24:01;;;;;;;12.60;8.10;;;;;;;-128.00;-1.00;-1.00;18483;296;7504697;-31
2023/04/22 06:26:27;;;;;;;26.20;8.40;;;;;;;-128.00;-1.00;-1.00;18496;288;7504910;-31
2023/04/22 06:28:53;;;;;;;15.20;6.70;;;;;;;-128.00;-1.00;-1.00;18471;287;7505124;-35
2023/04/22 06:31:18;;;;;;;11.40;8.30;;;;;;;-128.00;-1.00;-1.00;33465;296;7504056;-35
2023/04/22 06:33:45;;;;;;;15.70;7.70;;;;;;;-128.00;-1.00;-1.00;18492;288;7504395;-36
2023/04/22 06:36:12;;;;;;;13.90;8.80;;;;;;;-128.00;-1.00;-1.00;18455;288;7506123;-34
2023/04/22 06:38:37;;;;;;;16.90;9.00;;;;;;;-128.00;-1.00;-1.00;18520;287;7505018;-36
2023/04/22 06:41:03;;;;;;;12.40;8.10;;;;;;;-128.00;-1.00;-1.00;18471;297;7505511;-32
2023/04/22 06:43:29;;;;;;;10.50;7.40;;;;;;;-128.00;-1.00;-1.00;18458;289;7505222;-32
2023/04/22 06:45:55;;;;;;;15.10;8.80;;;;;;;-128.00;-1.00;-1.00;18889;297;7505280;-35
2023/04/22 06:48:21;;;;;;;15.50;9.60;;;;;;;-128.00;-1.00;-1.00;18889;288;7504567;-35
2023/04/22 06:50:47;;;;;;;15.40;9.70;;;;;;;-128.00;-1.00;-1.00;18875;283;7505302;-36
2023/04/22 06:53:13;;;;;;;12.70;8.60;;;;;;;-128.00;-1.00;-1.00;18847;297;7504915;-31
2023/04/22 06:55:40;;;;;;;17.70;10.90;;;;;;;-128.00;-1.00;-1.00;18886;340;7505162;-34
2023/04/22 06:58:06;;;;;;;17.00;9.30;;;;;;;-128.00;-1.00;-1.00;18864;296;7505575;-35
2023/04/22 07:00:32;;;;;;;15.90;9.20;;;;;;;-128.00;-1.00;-1.00;18909;296;7504595;-36
2023/04/22 07:02:58;;;;;;;13.90;9.60;;;;;;;-128.00;-1.00;-1.00;18899;296;7505375;-32
2023/04/22 07:05:24;;;;;;;13.20;8.60;;;;;;;-128.00;-1.00;-1.00;18882;287;7504335;-36
2023/04/22 07:07:50;;;;;;;20.20;10.60;;;;;;;-128.00;-1.00;-1.00;18888;348;7504154;-34
2023/04/22 07:10:17;;;;;;;14.40;9.50;;;;;;;-128.00;-1.00;-1.00;18927;287;7504972;-36
2023/04/22 07:12:44;;;;;;;18.00;10.90;;;;;;;-128.00;-1.00;-1.00;18898;296;7504708;-35
2023/04/22 07:15:10;;;;;;;15.10;10.90;;;;;;;-128.00;-1.00;-1.00;18457;308;7505029;-32
2023/04/22 07:17:35;;;;;;;26.50;13.20;;;;;;;-128.00;-1.00;-1.00;18450;298;7504517;-31
2023/04/22 07:20:01;;;;;;;15.20;9.20;;;;;;;-128.00;-1.00;-1.00;18439;295;7506259;-31
2023/04/22 07:22:27;;;;;;;14.80;9.50;;;;;;;-128.00;-1.00;-1.00;18485;287;7504905;-31
2023/04/22 07:24:53;;;;;;;18.90;10.20;;;;;;;-128.00;-1.00;-1.00;18884;297;7504464;-32
2023/04/22 07:27:19;;;;;;;16.30;9.80;;;;;;;-128.00;-1.00;-1.00;18875;296;7505067;-32
2023/04/22 07:29:45;;;;;;;14.20;8.20;;;;;;;-128.00;-1.00;-1.00;18867;288;7504854;-35
2023/04/22 07:32:11;;;;;;;21.50;10.10;;;;;;;-128.00;-1.00;-1.00;18867;296;7504484;-35
2023/04/22 07:34:37;;;;;;;11.10;8.10;;;;;;;-128.00;-1.00;-1.00;18900;296;7505349;-35
2023/04/22 07:37:06;;;;;;;24.20;8.20;;;;;;;-128.00;-1.00;-1.00;18881;296;7505455;-35
2023/04/22 07:39:31;;;;;;;21.60;11.40;;;;;;;-128.00;-1.00;-1.00;18435;284;7506644;-32
2023/04/22 07:41:57;;;;;;;14.30;8.50;;;;;;;-128.00;-1.00;-1.00;18908;295;7504707;-32
2023/04/22 07:44:24;;;;;;;13.30;8.40;;;;;;;-128.00;-1.00;-1.00;18881;296;7504570;-34
2023/04/22 07:46:50;;;;;;;12.70;9.30;;;;;;;-128.00;-1.00;-1.00;18884;295;7504777;-32
2023/04/22 07:49:16;;;;;;;12.10;8.50;;;;;;;-128.00;-1.00;-1.00;18907;299;7505632;-35
2023/04/22 07:51:43;;;;;;;18.70;8.70;;;;;;;-128.00;-1.00;-1.00;18890;296;7505096;-35
2023/04/22 07:54:09;;;;;;;10.40;7.70;;;;;;;-128.00;-1.00;-1.00;18462;349;7504397;-35
2023/04/22 07:56:34;;;;;;;12.60;6.90;;;;;;;-128.00;-1.00;-1.00;18509;287;7505752;-32
2023/04/22 07:59:01;;;;;;;9.70;7.40;;;;;;;-128.00;-1.00;-1.00;18881;283;7507105;-31
2023/04/22 08:01:26;;;;;;;9.20;6.90;;;;;;;-128.00;-1.00;-1.00;18457;297;7505530;-35
2023/04/22 08:03:52;;;;;;;10.90;7.80;;;;;;;-128.00;-1.00;-1.00;18461;287;7504889;-35
2023/04/22 08:06:18;;;;;;;10.10;7.90;;;;;;;-128.00;-1.00;-1.00;18467;296;7506749;-36
2023/04/22 08:08:43;;;;;;;11.40;7.70;;;;;;;-128.00;-1.00;-1.00;18508;296;7505624;-35
2023/04/22 08:11:12;;;;;;;12.90;7.30;;;;;;;-128.00;-1.00;-1.00;18996;336;7504325;-32
2023/04/22 08:13:38;;;;;;;9.80;7.20;;;;;;;-128.00;-1.00;-1.00;21223;297;7504404;-31
2023/04/22 08:16:04;;;;;;;12.10;6.60;;;;;;;-128.00;-1.00;-1.00;32647;287;7504418;-31
2023/04/22 08:18:30;;;;;;;9.20;6.60;;;;;;;-128.00;-1.00;-1.00;94793;295;3002439;-34
2023/04/22 08:20:56;;;;;;;13.00;5.80;;;;;;;-128.00;-1.00;-1.00;98033;295;1003273;-33
2023/04/22 08:23:22;;;;;;;12.80;7.30;;;;;;;-128.00;-1.00;-1.00;97856;287;1003654;-31
2023/04/22 08:25:48;;;;;;;9.10;5.70;;;;;;;-128.00;-1.00;-1.00;97472;296;1004218;-31
2023/04/22 08:28:14;;;;;;;6.80;5.20;;;;;;;-128.00;-1.00;-1.00;97828;296;1003254;-33
2023/04/22 08:30:39;;;;;;;6.10;4.70;;;;;;;-128.00;-1.00;-1.00;97757;295;1003603;-29
2023/04/22 08:33:05;;;;;;;8.50;5.80;;;;;;;-128.00;-1.00;-1.00;97841;283;1004267;-32
2023/04/22 08:35:31;;;;;;;7.00;4.50;;;;;;;-128.00;-1.00;-1.00;97856;296;1004648;-37
2023/04/22 08:37:57;;;;;;;9.50;5.50;;;;;;;-128.00;-1.00;-1.00;97815;296;1002940;-31
2023/04/22 08:40:22;;;;;;;17.80;9.40;;;;;;;-128.00;-1.00;-1.00;97817;295;1003510;-31
2023/04/22 08:42:48;;;;;;;27.00;9.60;;;;;;;-128.00;-1.00;-1.00;63722;296;7305966;-35
2023/04/22 08:45:14;;;;;;;47.90;20.30;;;;;;;-128.00;-1.00;-1.00;47550;296;3773065;-35
2023/04/22 08:47:39;;;;;;;12.40;7.10;;;;;;;-128.00;-1.00;-1.00;18506;295;7505570;-36
2023/04/22 08:50:08;;;;;;;9.80;3.80;;;;;;;-128.00;-1.00;-1.00;19595;287;7504116;-32
2023/04/22 08:52:34;;;;;;;6.10;3.60;;;;;;;-128.00;-1.00;-1.00;18624;331;7504135;-36
2023/04/22 08:55:02;;;;;;;3.80;3.50;;;;;;;-128.00;-1.00;-1.00;20331;296;7504682;-32
2023/04/22 08:57:31;;;;;;;2.00;1.90;;;;;;;-128.00;-1.00;-1.00;18989;320;7504167;-35
2023/04/22 08:59:57;;;;;;;5.00;2.90;;;;;;;-128.00;-1.00;-1.00;18867;296;7504608;-34
2023/04/22 09:02:23;;;;;;;3.40;2.60;;;;;;;-128.00;-1.00;-1.00;23097;296;7504364;-32
2023/04/22 09:04:52;;;;;;;2.00;1.70;;;;;;;-128.00;-1.00;-1.00;18879;296;7504542;-35
2023/04/22 09:07:23;;;;;;;3.50;2.40;;;;;;;-128.00;-1.00;-1.00;18476;295;7504732;-35
2023/04/22 09:09:50;;;;;;;9.50;2.90;;;;;;;-128.00;-1.00;-1.00;18484;295;7504148;-35
2023/04/22 09:12:19;;;;;;;3.50;3.20;;;;;;;-128.00;-1.00;-1.00;18552;295;7504343;-32
2023/04/22 09:14:44;;;;;;;2.30;1.60;;;;;;;-128.00;-1.00;-1.00;18480;296;7505288;-35
2023/04/22 09:17:10;;;;;;;2.80;2.50;;;;;;;-128.00;-1.00;-1.00;18484;316;7504530;-35
2023/04/22 09:19:36;;;;;;;2.30;1.60;;;;;;;-128.00;-1.00;-1.00;65736;296;7504050;-34
2023/04/22 09:22:01;;;;;;;4.00;2.60;;;;;;;-128.00;-1.00;-1.00;97814;296;1003857;-37
2023/04/22 09:24:27;;;;;;;2.10;1.10;;;;;;;-128.00;-1.00;-1.00;97821;295;1003446;-34
2023/04/22 09:26:54;;;;;;;4.90;2.00;;;;;;;-128.00;-1.00;-1.00;96313;296;2100568;-31
2023/04/22 09:29:20;;;;;;;2.70;2.10;;;;;;;-128.00;-1.00;-1.00;97216;295;1003735;-34
2023/04/22 09:31:49;;;;;;;6.80;2.70;;;;;;;-128.00;-1.00;-1.00;91210;295;3853854;-34
2023/04/22 09:34:14;;;;;;;4.20;1.70;;;;;;;-128.00;-1.00;-1.00;94412;295;2814026;-35
2023/04/22 09:36:40;;;;;;;4.30;2.30;;;;;;;-128.00;-1.00;-1.00;97918;295;1002718;-34
2023/04/22 09:39:07;;;;;;;6.10;3.40;;;;;;;-128.00;-1.00;-1.00;75508;296;7504928;-34
2023/04/22 09:41:35;;;;;;;6.10;3.40;;;;;;;-128.00;-1.00;-1.00;20988;287;7505815;-33
2023/04/22 09:44:02;;;;;;;3.30;2.50;;;;;;;-128.00;-1.00;-1.00;18613;295;7505106;-36
2023/04/22 09:46:28;;;;;;;4.50;2.20;;;;;;;-128.00;-1.00;-1.00;77574;295;7504032;-36
2023/04/22 09:48:54;;;;;;;2.80;2.40;;;;;;;-128.00;-1.00;-1.00;97904;296;1003517;-30
2023/04/22 09:51:20;;;;;;;3.30;1.60;;;;;;;-128.00;-1.00;-1.00;97866;296;1003324;-31
2023/04/22 09:54:07;;;;;;;2.50;1.60;;;;;;;-128.00;-1.00;-1.00;97845;296;1004448;-31
2023/04/22 09:56:49;;;;;;;4.10;1.90;;;;;;;-128.00;-1.00;-1.00;97982;295;1003842;-31
2023/04/22 09:59:20;;;;;;;4.10;1.70;;;;;;;-128.00;-1.00;-1.00;97876;287;1002754;-35
2023/04/22 10:01:46;;;;;;;2.40;1.70;;;;;;;-128.00;-1.00;-1.00;97897;295;1003394;-32
2023/04/22 10:04:14;;;;;;;4.40;2.20;;;;;;;-128.00;-1.00;-1.00;97997;296;1002281;-35
2023/04/22 10:06:40;;;;;;;4.00;1.60;;;;;;;-128.00;-1.00;-1.00;97950;295;1004366;-37
2023/04/22 10:09:06;;;;;;;1.90;1.60;;;;;;;-128.00;-1.00;-1.00;98023;295;1003957;-34
2023/04/22 10:11:33;;;;;;;2.60;2.00;;;;;;;-128.00;-1.00;-1.00;97986;295;1003912;-36
2023/04/22 10:14:01;;;;;;;3.20;2.50;;;;;;;-128.00;-1.00;-1.00;97977;295;1003144;-35
2023/04/22 10:16:30;;;;;;;2.70;2.40;;;;;;;-128.00;-1.00;-1.00;98000;295;1003259;-31
2023/04/22 10:18:56;;;;;;;4.20;2.40;;;;;;;-128.00;-1.00;-1.00;97827;296;1003779;-30
2023/04/22 10:21:23;;;;;;;5.70;2.00;;;;;;;-128.00;-1.00;-1.00;97842;297;1004005;-36
2023/04/22 10:23:49;;;;;;;3.00;1.90;;;;;;;-128.00;-1.00;-1.00;97879;287;1002946;-32
2023/04/22 10:26:39;;;;;;;2.70;1.60;;;;;;;-128.00;-1.00;-1.00;97939;283;1004932;-32
2023/04/22 10:29:06;;;;;;;4.80;2.30;;;;;;;-128.00;-1.00;-1.00;97917;295;1004433;-33
2023/04/22 10:31:32;;;;;;;4.50;1.90;;;;;;;-128.00;-1.00;-1.00;97968;295;1005001;-36
2023/04/22 10:34:10;;;;;;;9.90;1.80;;;;;;;-128.00;-1.00;-1.00;97825;296;1004811;-36
2023/04/22 10:36:58;;;;;;;4.30;2.00;;;;;;;-128.00;-1.00;-1.00;97934;287;1003806;-36
2023/04/22 10:39:24;;;;;;;2.50;1.40;;;;;;;-128.00;-1.00;-1.00;97919;295;1004463;-33
2023/04/22 10:41:57;;;;;;;12.00;1.70;;;;;;;-128.00;-1.00;-1.00;97879;296;1004318;-36
2023/04/22 10:44:23;;;;;;;1.50;1.40;;;;;;;-128.00;-1.00;-1.00;97930;296;1002842;-32
2023/04/22 10:46:54;;;;;;;3.40;1.90;;;;;;;-128.00;-1.00;-1.00;97860;295;1004346;-31
2023/04/22 10:49:24;;;;;;;1.80;1.70;;;;;;;-128.00;-1.00;-1.00;97812;295;1002784;-35
2023/04/22 10:51:57;;;;;;;2.60;1.90;;;;;;;-128.00;-1.00;-1.00;97923;295;1003996;-32
2023/04/22 10:54:54;;;;;;;3.20;2.60;;;;;;;-128.00;-1.00;-1.00;97889;287;1002460;-36
2023/04/22 10:57:23;;;;;;;2.40;2.00;;;;;;;-128.00;-1.00;-1.00;97759;295;1003936;-35
2023/04/22 10:59:54;;;;;;;2.70;1.70;;;;;;;-128.00;-1.00;-1.00;97894;295;1004363;-32
2023/04/22 11:02:20;;;;;;;3.10;1.80;;;;;;;-128.00;-1.00;-1.00;97845;296;1004742;-34
2023/04/22 11:04:47;;;;;;;2.50;2.20;;;;;;;-128.00;-1.00;-1.00;97797;296;1003181;-30
2023/04/22 11:47:30;;;;;;;2.40;1.90;;;;;;;-97.68;4.63;19831.10;98275;284;1544177;-34
2023/04/22 11:49:58;;;;;;;4.50;1.70;;;;;;;-128.00;-1.00;-1.00;97518;285;1003604;-34
2023/04/22 11:52:25;;;;;;;4.00;2.20;;;;;;;-128.00;-1.00;-1.00;97963;294;1002757;-34
2023/04/22 11:54:50;;;;;;;1.20;1.00;;;;;;;-128.00;-1.00;-1.00;97789;294;1003270;-37
2023/04/22 11:57:16;;;;;;;6.50;2.10;;;;;;;-128.00;-1.00;-1.00;97829;294;1004914;-35
2023/04/22 11:59:42;;;;;;;2.50;1.90;;;;;;;-128.00;-1.00;-1.00;98034;294;1004403;-35
2023/04/22 12:02:09;;;;;;;3.00;2.00;;;;;;;-128.00;-1.00;-1.00;97846;294;1003183;-35
2023/04/22 12:04:39;;;;;;;4.00;2.50;;;;;;;-128.00;-1.00;-1.00;97880;295;1003096;-35
2023/04/22 12:07:04;;;;;;;3.00;2.40;;;;;;;-128.00;-1.00;-1.00;97934;294;1003174;-31
2023/04/22 12:09:30;;;;;;;2.30;1.70;;;;;;;-128.00;-1.00;-1.00;97920;294;1003577;-36
2023/04/22 12:11:55;;;;;;;1.90;1.70;;;;;;;-128.00;-1.00;-1.00;97840;294;1002812;-35
2023/04/22 12:14:30;;;;;;;2.80;1.90;;;;;;;-128.00;-1.00;-1.00;97931;294;1004200;-30
2023/04/22 12:16:56;;;;;;;3.00;1.80;;;;;;;-128.00;-1.00;-1.00;97857;294;1002749;-35
2023/04/22 12:19:25;;;;;;;2.40;2.00;;;;;;;-128.00;-1.00;-1.00;97931;294;1003223;-30
2023/04/22 12:21:55;;;;;;;2.50;1.50;;;;;;;-128.00;-1.00;-1.00;97977;294;1004464;-34
2023/04/22 12:24:26;;;;;;;2.50;1.60;;;;;;;-128.00;-1.00;-1.00;97834;294;1002747;-30
2023/04/22 12:26:52;;;;;;;7.50;1.50;;;;;;;-128.00;-1.00;-1.00;97969;294;1003896;-37
2023/04/22 12:29:32;;;;;;;5.20;1.30;;;;;;;-128.00;-1.00;-1.00;97862;294;1003319;-38
2023/04/22 12:31:58;;;;;;;1.70;1.40;;;;;;;-128.00;-1.00;-1.00;97874;294;1003455;-34
2023/04/22 12:34:24;;;;;;;3.30;1.60;;;;;;;-128.00;-1.00;-1.00;97966;294;1004787;-33
2023/04/22 12:36:50;;;;;;;2.30;1.70;;;;;;;-128.00;-1.00;-1.00;97955;283;1004597;-36
2023/04/22 12:39:15;;;;;;;2.50;1.20;;;;;;;-128.00;-1.00;-1.00;97960;294;1002872;-36
2023/04/22 12:41:41;;;;;;;1.90;1.50;;;;;;;-128.00;-1.00;-1.00;97847;283;1003511;-32